Historique des mesures à Cassis (13260), France
Quotidien Résumé Fevrier 6, 2018 Unités:  Métrique/US    US   Métrique
« Précédent (Jour)
Suivant (Jour) »
Quotidien Hebdomadaire Mensuel Annuel Période au choix
  Maximum: Minimum: Moyenne:
Température: 32 °F /  TemperatureC °C 46.2 °F /  7.9 °C 49.6 °F /  9.8 °C
Point de rosée: 32 °F /  DewpointC °C 40.1 °F /  4.5 °C 41.4 °F /  5.2 °C
Humidité: Humidity % 65 % 69 %
Vitesse du vent: WindSpeedKMH mph /  0 km/h - 5.4 mph /  8.7 km/h
Rafales: WindSpeedGustKMH mph /  0 km/h - -
Vent:- - SE
Pression: 0 in /  PressurehPa hPa 29.6 in /  1001.9 hPa -
Précipitations: 25.4 in /  1.0 mm    
Historical Graphs
 
 
Mesures pour : Fevrier 6, 2018
Heure Temperature Point de rosée Pression Vent Vitesse du vent Rafales Humidité Pluie (par heure) Conditions
32 °F /  TemperatureC °C 32 °F /  DewpointC °C 0 in /  PressurehPa hPa Calm     Humidity % 0 in /  HourlyPrecipMM mm SoftwareType W/m2
00:12 49.8 °F /  9.9 °C 40.8 °F /  4.9 °C 29.8 in /  1008.4 hPa Calm   7.2 mph /  11.6 km/h 71 % 0 in /  0.0 mm open2300-1.11 W/m2
01:12 50.2 °F /  10.1 °C 41.2 °F /  5.1 °C 29.8 in /  1008.0 hPa SSE 6.1 mph /  9.8 km/h 6.1 mph /  9.8 km/h 71 % 0 in /  0.0 mm open2300-1.11 W/m2
02:12 50.2 °F /  10.1 °C 41.2 °F /  5.1 °C 29.7 in /  1007.3 hPa ESE 6.4 mph /  10.3 km/h 6.4 mph /  10.3 km/h 71 % 0 in /  0.0 mm open2300-1.11 W/m2
03:12 49.8 °F /  9.9 °C 41.5 °F /  5.3 °C 29.7 in /  1007.0 hPa ENE 10.1 mph /  16.3 km/h 13.4 mph /  21.6 km/h 73 % 0 in /  0.0 mm open2300-1.11 W/m2
04:12 49.6 °F /  9.8 °C 41.7 °F /  5.4 °C 29.7 in /  1006.3 hPa ESE 4.7 mph /  7.6 km/h 4.7 mph /  7.6 km/h 74 % 0 in /  0.0 mm open2300-1.11 W/m2
05:12 48.7 °F /  9.3 °C 42.1 °F /  5.6 °C 29.7 in /  1006.0 hPa Calm     78 % 12.7 in /  0.5 mm open2300-1.11 W/m2
06:12 48.6 °F /  9.2 °C 42.6 °F /  5.9 °C 29.7 in /  1006.0 hPa South 2.1 mph /  3.4 km/h 4.3 mph /  6.9 km/h 80 % 12.7 in /  0.5 mm open2300-1.11 W/m2
07:12 48.7 °F /  9.3 °C 42.4 °F /  5.8 °C 29.7 in /  1005.0 hPa Calm   8.2 mph /  13.2 km/h 79 % 0 in /  0.0 mm open2300-1.11 W/m2
08:12 49.3 °F /  9.6 °C 42.1 °F /  5.6 °C 29.7 in /  1004.6 hPa Calm   8.7 mph /  14 km/h 76 % 0 in /  0.0 mm open2300-1.11 W/m2
09:12 49.8 °F /  9.9 °C 41.7 °F /  5.4 °C 29.7 in /  1004.3 hPa East 5.0 mph /  8 km/h 10.8 mph /  17.4 km/h 74 % 0 in /  0.0 mm open2300-1.11 W/m2
10:12 51.3 °F /  10.7 °C 42.6 °F /  5.9 °C 29.7 in /  1004.3 hPa ESE 6.1 mph /  9.8 km/h 7.9 mph /  12.7 km/h 72 % 0 in /  0.0 mm open2300-1.11 W/m2
11:12 51.6 °F /  10.9 °C 42.3 °F /  5.7 °C 29.7 in /  1004.6 hPa ENE 7.9 mph /  12.7 km/h 7.9 mph /  12.7 km/h 70 % 0 in /  0.0 mm open2300-1.11 W/m2
12:12 51.3 °F /  10.7 °C 41.9 °F /  5.5 °C 29.7 in /  1004.3 hPa NNE 4.7 mph /  7.6 km/h 5.0 mph /  8 km/h 70 % 0 in /  0.0 mm open2300-1.11 W/m2
13:12 51.1 °F /  10.6 °C 42.4 °F /  5.8 °C 29.6 in /  1002.9 hPa East 2.1 mph /  3.4 km/h 6.1 mph /  9.8 km/h 72 % 0 in /  0.0 mm open2300-1.11 W/m2
14:12 52.9 °F /  11.6 °C 42.3 °F /  5.7 °C 29.6 in /  1002.6 hPa NE 4.0 mph /  6.4 km/h 7.6 mph /  12.2 km/h 67 % 0 in /  0.0 mm open2300-1.11 W/m2
15:12 53.1 °F /  11.7 °C 41.5 °F /  5.3 °C 29.6 in /  1001.9 hPa ESE 4.3 mph /  6.9 km/h 12.6 mph /  20.3 km/h 65 % 0 in /  0.0 mm open2300-1.11 W/m2
16:12 53.2 °F /  11.8 °C 41.7 °F /  5.4 °C 29.6 in /  1001.9 hPa ESE 3.5 mph /  5.6 km/h 3.5 mph /  5.6 km/h 65 % 0 in /  0.0 mm open2300-1.11 W/m2
17:12 52.2 °F /  11.2 °C 40.6 °F /  4.8 °C 29.6 in /  1002.3 hPa ESE 10.8 mph /  17.4 km/h 10.8 mph /  17.4 km/h 65 % 0 in /  0.0 mm open2300-1.11 W/m2
18:12 51.6 °F /  10.9 °C 41 °F /  5.0 °C 29.6 in /  1002.3 hPa Calm     67 % 0 in /  0.0 mm open2300-1.11 W/m2
19:12 51.4 °F /  10.8 °C 41.2 °F /  5.1 °C 29.6 in /  1002.6 hPa Calm     68 % 0 in /  0.0 mm open2300-1.11 W/m2
20:12 49.8 °F /  9.9 °C 41.7 °F /  5.4 °C 29.6 in /  1002.9 hPa WNW 6.4 mph /  10.3 km/h 13.4 mph /  21.6 km/h 74 % 0 in /  0.0 mm open2300-1.11 W/m2
21:12 48.9 °F /  9.4 °C 41.5 °F /  5.3 °C 29.6 in /  1002.9 hPa WNW 16.9 mph /  27.2 km/h 20.1 mph /  32.3 km/h 76 % 0 in /  0.0 mm open2300-1.11 W/m2
22:12 48 °F /  8.9 °C 41.7 °F /  5.4 °C 29.6 in /  1002.9 hPa West 10.1 mph /  16.3 km/h 20.9 mph /  33.6 km/h 79 % 0 in /  0.0 mm open2300-1.11 W/m2
23:12 46.2 °F /  7.9 °C 40.1 °F /  4.5 °C 29.6 in /  1002.9 hPa WNW 23.0 mph /  37 km/h 23.0 mph /  37 km/h 79 % 0 in /  0.0 mm open2300-1.11 W/m2
Observations météo à CASSIS
WU-History script by Weather Underground - 1 mb